Terminal Aerodrome Forecast
Issued by NWS

Home | Current Version | Previous Version | Text Only | Print | Product List | Glossary On
Versions: 1 2 3 4 5 6 7 8 9 10 11 12 13
000
FTUS42 TJSJ 261140
TAFJBQ
TAF
TJBQ 261140Z 2612/2712 10008KT P6SM SCT020 SCT028 SCT080
     FM261330 08013G18KT P6SM FEW025 SCT080
     FM262330 10008KT P6SM SCT025 SCT050 SCT080=

USA.gov is the U.S. government's official web portal to all federal, state and local government web resources and services.